Time;durP1;ratioP1;P1;durP2;ratioP2;P2;SDS_P1;SDS_P2;PMS_P1;PMS_P2;Temp;Humidity;BMP_temperature;BMP_pressure;BME280_temperature;BME280_humidity;BME280_pressure;Samples;Min_cycle;Max_cycle;Signal;HPM_P1;HPM_P2
2022/05/17 00:01:54;;;;;;;6.68;4.55;;;19.30;99.90;;;;;;5068061;28;20025;-84
2022/05/17 00:04:20;;;;;;;5.90;5.13;;;19.30;99.90;;;;;;5068632;28;20036;-80
2022/05/17 00:06:47;;;;;;;7.70;6.00;;;19.30;99.90;;;;;;5066732;28;20452;-80
2022/05/17 00:09:13;;;;;;;10.63;4.47;;;19.30;99.90;;;;;;5075759;28;20063;-81
2022/05/17 00:11:38;;;;;;;8.50;5.47;;;19.30;99.90;;;;;;5068520;28;20036;-81
2022/05/17 00:14:04;;;;;;;7.68;4.80;;;19.30;99.90;;;;;;5069452;28;20028;-80
2022/05/17 00:16:30;;;;;;;7.25;5.10;;;19.30;99.90;;;;;;5084328;28;20024;-86
2022/05/17 00:18:56;;;;;;;7.78;5.60;;;19.30;99.90;;;;;;5077750;28;20032;-87
2022/05/17 00:21:21;;;;;;;8.30;5.25;;;19.20;99.90;;;;;;5069026;28;20554;-81
2022/05/17 00:23:47;;;;;;;6.75;4.95;;;19.20;99.90;;;;;;5069476;28;20029;-81
2022/05/17 00:26:13;;;;;;;7.72;5.00;;;19.10;99.90;;;;;;5083054;28;20029;-80
2022/05/17 00:28:39;;;;;;;9.40;5.70;;;19.10;99.90;;;;;;5068715;28;20040;-80
2022/05/17 00:31:06;;;;;;;6.97;5.30;;;19.00;99.90;;;;;;5068652;28;20532;-86
2022/05/17 00:33:33;;;;;;;6.43;4.60;;;19.00;99.90;;;;;;5074016;28;20490;-84
2022/05/17 00:35:58;;;;;;;6.93;4.88;;;19.00;99.90;;;;;;5082413;28;20032;-80
2022/05/17 00:38:24;;;;;;;8.40;5.40;;;18.90;99.90;;;;;;5076987;28;20047;-87
2022/05/17 00:40:50;;;;;;;5.90;4.88;;;18.90;99.90;;;;;;5072701;28;20032;-80
2022/05/17 00:46:27;;;;;;;6.65;5.38;;;18.80;99.90;;;;;;5073091;28;20062;-79
2022/05/17 00:48:54;;;;;;;7.35;5.30;;;18.80;99.90;;;;;;5071509;28;20047;-86
2022/05/17 00:51:23;;;;;;;8.85;5.07;;;18.70;99.90;;;;;;5071976;28;20085;-81
2022/05/17 00:53:50;;;;;;;9.05;6.70;;;18.60;99.90;;;;;;5073095;28;20470;-86
2022/05/17 00:56:20;;;;;;;6.75;5.95;;;18.60;99.90;;;;;;5071502;28;20105;-90
2022/05/17 00:58:57;;;;;;;9.45;6.57;;;18.60;99.90;;;;;;5073524;28;20033;-84
2022/05/17 01:01:29;;;;;;;9.88;6.63;;;18.60;99.90;;;;;;5074338;28;20039;-79
2022/05/17 01:04:19;;;;;;;14.90;8.00;;;18.50;99.90;;;;;;5073930;28;20077;-86
2022/05/17 01:06:49;;;;;;;9.35;7.72;;;18.50;99.90;;;;;;5072225;28;20033;-82
2022/05/17 01:09:14;;;;;;;9.77;7.65;;;18.50;99.90;;;;;;5073169;28;20386;-80
2022/05/17 01:11:41;;;;;;;9.90;7.68;;;18.40;99.90;;;;;;5072588;28;20032;-80
2022/05/17 01:16:52;;;;;;;11.43;7.53;;;18.40;99.90;;;;;;5073827;28;20556;-83
2022/05/17 01:19:17;;;;;;;8.57;7.10;;;18.30;99.90;;;;;;5071997;28;20033;-79
2022/05/17 01:21:43;;;;;;;8.85;6.60;;;18.20;99.90;;;;;;5063789;28;20029;-80
2022/05/17 01:24:09;;;;;;;8.05;6.60;;;18.20;99.90;;;;;;5073710;28;20032;-79
2022/05/17 01:26:37;;;;;;;6.70;5.82;;;18.20;99.90;;;;;;5068634;28;20020;-85
2022/05/17 01:29:05;;;;;;;7.55;5.88;;;18.20;99.90;;;;;;5071951;28;20040;-82
2022/05/17 01:31:32;;;;;;;8.55;5.28;;;18.20;99.90;;;;;;5068686;28;20033;-86
2022/05/17 01:33:58;;;;;;;7.07;5.35;;;18.10;99.90;;;;;;5066971;28;20036;-88
2022/05/17 01:36:23;;;;;;;5.35;4.68;;;18.10;99.90;;;;;;5070060;28;20044;-80
2022/05/17 01:38:51;;;;;;;6.60;4.15;;;18.10;99.90;;;;;;5071372;28;20032;-82
2022/05/17 01:41:18;;;;;;;6.07;4.90;;;18.10;99.90;;;;;;5071654;28;20359;-87
2022/05/17 01:43:43;;;;;;;7.75;5.03;;;18.00;99.90;;;;;;5069735;28;20086;-80
2022/05/17 01:46:09;;;;;;;6.82;5.13;;;18.00;99.90;;;;;;5066786;28;20033;-80
2022/05/17 01:48:38;;;;;;;5.82;4.65;;;18.00;99.90;;;;;;5065619;28;20028;-82
2022/05/17 01:51:06;;;;;;;6.32;5.38;;;18.00;99.90;;;;;;5067068;28;20033;-80
2022/05/17 01:53:31;;;;;;;8.70;6.00;;;18.00;99.90;;;;;;5070871;28;20081;-80
2022/05/17 01:55:57;;;;;;;8.98;5.22;;;17.90;99.90;;;;;;5069575;28;20024;-80
2022/05/17 01:58:23;;;;;;;7.80;6.40;;;17.90;99.90;;;;;;5065286;28;20040;-79
2022/05/17 02:00:48;;;;;;;8.55;5.80;;;17.90;99.90;;;;;;5065119;28;20025;-82
2022/05/17 02:03:14;;;;;;;13.60;6.90;;;17.90;99.90;;;;;;5070032;28;20031;-85
2022/05/17 02:05:39;;;;;;;8.85;6.10;;;18.00;99.90;;;;;;5069610;28;20043;-77
2022/05/17 02:08:05;;;;;;;7.78;6.00;;;18.00;99.90;;;;;;5070884;28;20055;-79
2022/05/17 02:10:30;;;;;;;8.27;5.72;;;18.00;99.90;;;;;;5062400;28;20541;-80
2022/05/17 02:12:58;;;;;;;8.20;6.10;;;17.90;99.90;;;;;;5071691;28;20094;-84
2022/05/17 02:15:25;;;;;;;8.57;5.78;;;17.90;99.90;;;;;;5066631;28;22464;-79
2022/05/17 02:17:51;;;;;;;10.65;6.85;;;17.90;99.90;;;;;;5063308;28;20032;-87
2022/05/17 02:20:17;;;;;;;9.93;7.03;;;18.00;99.90;;;;;;5062371;28;20031;-79
2022/05/17 02:22:43;;;;;;;9.98;7.57;;;17.90;99.90;;;;;;5069714;28;20029;-82
2022/05/17 02:25:09;;;;;;;10.18;7.75;;;17.90;99.90;;;;;;5070623;28;20033;-79
2022/05/17 02:27:35;;;;;;;8.85;7.93;;;17.80;99.90;;;;;;5070087;28;20028;-82
2022/05/17 02:30:01;;;;;;;11.63;9.52;;;17.80;99.90;;;;;;5066012;28;20054;-86
2022/05/17 02:32:26;;;;;;;9.88;8.68;;;17.80;99.90;;;;;;5069956;28;20036;-79
2022/05/17 02:34:52;;;;;;;12.68;9.63;;;17.80;99.90;;;;;;5068791;28;20032;-81
2022/05/17 02:37:18;;;;;;;11.68;10.45;;;17.80;99.90;;;;;;5062020;28;20498;-80
2022/05/17 02:39:45;;;;;;;13.88;9.75;;;17.90;99.90;;;;;;5071965;28;20041;-80
2022/05/17 02:42:11;;;;;;;15.85;10.38;;;17.90;99.90;;;;;;5068502;28;20382;-86
2022/05/17 02:44:37;;;;;;;15.13;11.48;;;17.90;99.90;;;;;;5067948;28;20517;-83
2022/05/17 02:47:04;;;;;;;12.90;11.57;;;17.90;99.90;;;;;;5060345;28;20675;-86
2022/05/17 02:49:29;;;;;;;16.40;12.07;;;17.90;99.90;;;;;;5061147;28;20115;-84
2022/05/17 02:51:55;;;;;;;14.55;12.25;;;17.90;99.90;;;;;;5061296;28;20182;-85
2022/05/17 02:54:21;;;;;;;16.98;12.40;;;17.90;99.90;;;;;;5059150;28;20040;-84
2022/05/17 02:56:46;;;;;;;16.00;11.63;;;17.90;99.90;;;;;;5066685;28;20040;-91
2022/05/17 02:59:18;;;;;;;17.88;11.77;;;17.80;99.90;;;;;;5068291;28;20032;-85
2022/05/17 03:01:44;;;;;;;13.87;11.93;;;17.80;99.90;;;;;;5069430;28;20056;-81
2022/05/17 03:04:12;;;;;;;16.13;10.93;;;17.90;99.90;;;;;;5068975;28;20031;-82
2022/05/17 03:06:38;;;;;;;13.23;10.70;;;17.80;99.90;;;;;;5064471;28;20494;-80
2022/05/17 03:09:04;;;;;;;14.02;10.52;;;17.80;99.90;;;;;;5072362;28;20032;-83
2022/05/17 03:11:29;;;;;;;12.52;10.88;;;17.80;99.90;;;;;;5069446;28;20036;-83
2022/05/17 03:13:55;;;;;;;15.50;10.75;;;17.70;99.90;;;;;;5063675;28;20108;-81
2022/05/17 03:16:20;;;;;;;12.55;10.43;;;17.70;99.90;;;;;;5061989;28;20032;-81
2022/05/17 03:18:46;;;;;;;15.90;11.63;;;17.70;99.90;;;;;;5063559;28;20394;-81
2022/05/17 03:21:11;;;;;;;11.88;10.07;;;17.70;99.90;;;;;;5084729;28;20028;-81
2022/05/17 03:23:37;;;;;;;15.18;9.38;;;17.70;99.90;;;;;;5058468;28;20111;-81
2022/05/17 03:26:03;;;;;;;12.27;9.45;;;17.60;99.90;;;;;;5061369;28;20031;-85
2022/05/17 03:28:28;;;;;;;13.30;10.38;;;17.60;99.90;;;;;;5065361;28;20043;-81
2022/05/17 03:30:54;;;;;;;9.38;8.20;;;17.60;99.90;;;;;;5068248;28;20445;-81
2022/05/17 03:33:19;;;;;;;11.60;7.72;;;17.60;99.90;;;;;;5061511;28;20025;-81
2022/05/17 03:35:45;;;;;;;11.05;8.75;;;17.60;99.90;;;;;;5066223;28;20020;-81
2022/05/17 03:38:11;;;;;;;10.18;8.57;;;17.60;99.90;;;;;;5068797;28;20036;-81
2022/05/17 03:40:36;;;;;;;10.65;7.82;;;17.60;99.90;;;;;;5068683;28;20025;-80
2022/05/17 03:43:02;;;;;;;11.18;7.80;;;17.60;99.90;;;;;;5065536;28;20036;-83
2022/05/17 03:45:27;;;;;;;10.57;8.55;;;17.60;99.90;;;;;;5064255;28;20127;-81
2022/05/17 03:47:53;;;;;;;9.15;8.02;;;17.60;99.90;;;;;;5065196;28;20045;-84
2022/05/17 03:50:18;;;;;;;9.82;8.07;;;17.60;99.90;;;;;;5064265;28;20055;-80
2022/05/17 03:52:44;;;;;;;10.65;8.30;;;17.60;99.90;;;;;;5066155;28;20028;-80
2022/05/17 03:55:11;;;;;;;10.98;7.78;;;17.50;99.90;;;;;;5066447;28;20032;-84
2022/05/17 03:57:37;;;;;;;12.07;8.20;;;17.50;99.90;;;;;;5060334;28;20510;-82
2022/05/17 04:00:06;;;;;;;11.65;7.90;;;17.50;99.90;;;;;;5065104;28;20037;-88
2022/05/17 04:02:32;;;;;;;9.40;8.18;;;17.50;99.90;;;;;;5068032;28;20024;-84
2022/05/17 04:04:57;;;;;;;9.35;7.43;;;17.40;99.90;;;;;;5067643;28;20036;-81
2022/05/17 04:07:23;;;;;;;11.10;9.00;;;17.40;99.90;;;;;;5071135;28;20040;-85
2022/05/17 04:09:49;;;;;;;9.77;8.13;;;17.40;99.90;;;;;;5052874;28;20458;-83
2022/05/17 04:12:15;;;;;;;9.02;8.10;;;17.40;99.90;;;;;;5068928;28;20055;-81
2022/05/17 04:14:41;;;;;;;9.90;8.05;;;17.50;99.90;;;;;;5069220;28;20477;-80
2022/05/17 04:17:07;;;;;;;9.65;7.20;;;17.40;99.90;;;;;;5067738;28;20031;-86
2022/05/17 04:19:32;;;;;;;8.75;7.57;;;17.50;99.90;;;;;;5070711;28;20111;-81
2022/05/17 04:21:58;;;;;;;9.48;7.35;;;17.50;99.90;;;;;;5069752;28;20112;-81
2022/05/17 04:24:25;;;;;;;9.00;7.10;;;17.50;99.90;;;;;;5070229;28;20041;-81
2022/05/17 04:26:50;;;;;;;8.85;7.05;;;17.60;99.90;;;;;;5069827;28;20449;-89
2022/05/17 04:29:16;;;;;;;10.40;7.82;;;17.60;99.90;;;;;;5069377;28;20112;-81
2022/05/17 04:31:41;;;;;;;12.45;7.60;;;17.60;99.90;;;;;;5068218;28;20119;-87
2022/05/17 04:34:07;;;;;;;8.40;7.07;;;17.60;99.90;;;;;;5071237;28;20060;-82
2022/05/17 04:36:33;;;;;;;10.98;9.02;;;17.60;99.90;;;;;;5069289;28;20525;-90
2022/05/17 04:39:00;;;;;;;10.35;8.25;;;17.60;99.90;;;;;;5062682;28;20028;-89
2022/05/17 04:41:25;;;;;;;11.02;7.75;;;17.70;99.90;;;;;;5068907;28;20478;-81
2022/05/17 04:43:51;;;;;;;10.18;8.63;;;17.60;99.90;;;;;;5067911;28;20044;-81
2022/05/17 04:46:16;;;;;;;10.15;8.25;;;17.70;99.90;;;;;;5063647;28;20068;-81
2022/05/17 04:48:42;;;;;;;9.13;8.23;;;17.70;99.90;;;;;;5067514;28;20475;-86
2022/05/17 04:51:09;;;;;;;11.75;8.68;;;17.70;99.90;;;;;;5060392;28;20486;-81
2022/05/17 04:53:37;;;;;;;9.07;8.10;;;17.60;99.90;;;;;;5054934;28;20033;-84
2022/05/17 04:56:04;;;;;;;10.27;8.25;;;17.60;99.90;;;;;;5052319;28;20052;-81
2022/05/17 04:58:29;;;;;;;11.52;8.30;;;17.60;99.90;;;;;;5069606;28;20106;-88
2022/05/17 05:00:54;;;;;;;11.48;8.63;;;17.60;99.90;;;;;;5068043;28;20467;-83
2022/05/17 05:03:20;;;;;;;10.82;8.60;;;17.60;99.90;;;;;;5065352;28;20035;-81
2022/05/17 05:05:47;;;;;;;9.57;8.23;;;17.70;99.90;;;;;;5062640;28;22304;-88
2022/05/17 05:08:13;;;;;;;12.13;8.68;;;17.70;99.90;;;;;;5052106;28;20489;-81
2022/05/17 05:10:38;;;;;;;12.02;9.35;;;17.70;99.90;;;;;;5051942;28;20116;-80
2022/05/17 05:13:04;;;;;;;10.73;9.13;;;17.60;99.90;;;;;;5065460;28;20063;-81
2022/05/17 05:15:31;;;;;;;12.13;9.20;;;17.60;99.90;;;;;;5067989;28;20029;-83
2022/05/17 05:17:57;;;;;;;11.38;9.63;;;17.60;99.90;;;;;;5068806;28;20032;-81
2022/05/17 05:20:23;;;;;;;12.38;9.80;;;17.60;99.90;;;;;;5068518;28;20029;-81
2022/05/17 05:22:48;;;;;;;13.80;10.07;;;17.50;99.90;;;;;;5073399;28;20036;-83
2022/05/17 05:25:15;;;;;;;15.45;9.98;;;17.50;99.90;;;;;;5072961;28;20516;-80
2022/05/17 05:27:41;;;;;;;12.30;10.30;;;17.60;99.90;;;;;;5069373;28;20040;-81
2022/05/17 05:30:09;;;;;;;16.42;11.18;;;17.50;99.90;;;;;;5071511;28;20115;-81
2022/05/17 05:32:35;;;;;;;14.07;10.73;;;17.50;99.90;;;;;;5070962;28;20401;-81
2022/05/17 05:35:02;;;;;;;15.07;11.57;;;17.50;99.90;;;;;;5071886;28;20037;-81
2022/05/17 05:37:28;;;;;;;13.15;10.35;;;17.50;99.90;;;;;;5070420;28;20040;-81
2022/05/17 05:39:54;;;;;;;15.65;11.02;;;17.50;99.90;;;;;;5066239;28;20082;-82
2022/05/17 05:42:19;;;;;;;14.15;11.43;;;17.50;99.90;;;;;;5068625;28;20028;-81
2022/05/17 05:44:45;;;;;;;14.23;10.48;;;17.50;99.90;;;;;;5067953;28;20086;-87
2022/05/17 05:47:10;;;;;;;14.73;10.32;;;17.50;99.90;;;;;;5066619;28;20036;-81
2022/05/17 05:49:36;;;;;;;14.73;10.73;;;17.40;99.90;;;;;;5065062;28;20634;-81
2022/05/17 05:52:01;;;;;;;14.38;10.77;;;17.40;99.90;;;;;;5063187;28;20025;-80
2022/05/17 05:54:27;;;;;;;12.05;10.07;;;17.40;99.90;;;;;;5066884;28;20039;-82
2022/05/17 05:56:52;;;;;;;14.02;10.98;;;17.40;99.90;;;;;;5065997;28;20028;-81
2022/05/17 05:59:18;;;;;;;15.10;10.45;;;17.40;99.90;;;;;;5064619;28;20047;-82
2022/05/17 06:01:44;;;;;;;15.35;10.50;;;17.50;99.90;;;;;;5064502;28;20024;-81
2022/05/17 06:04:10;;;;;;;17.67;11.30;;;17.50;99.90;;;;;;5070567;28;20083;-83
2022/05/17 06:06:35;;;;;;;12.85;10.60;;;17.40;99.90;;;;;;5064388;28;20799;-82
2022/05/17 06:09:01;;;;;;;14.38;11.00;;;17.50;99.90;;;;;;5067104;28;20043;-79
2022/05/17 06:11:27;;;;;;;12.77;10.43;;;17.50;99.90;;;;;;5070621;28;20046;-78
2022/05/17 06:13:53;;;;;;;15.57;11.35;;;17.40;99.90;;;;;;5071632;28;20016;-78
2022/05/17 06:16:18;;;;;;;14.98;10.07;;;17.50;99.90;;;;;;5069027;28;20063;-78
2022/05/17 06:18:45;;;;;;;14.88;11.55;;;17.50;99.90;;;;;;5075932;28;20028;-80
2022/05/17 06:21:10;;;;;;;18.42;11.95;;;17.50;99.90;;;;;;5078730;28;20482;-79
2022/05/17 06:23:36;;;;;;;20.40;11.88;;;17.50;99.90;;;;;;5067736;28;20043;-85
2022/05/17 06:26:02;;;;;;;16.13;11.45;;;17.50;99.90;;;;;;5069381;28;20029;-78
2022/05/17 06:28:28;;;;;;;15.52;11.98;;;17.50;99.90;;;;;;5053881;28;20036;-79
2022/05/17 06:30:54;;;;;;;17.55;11.73;;;17.50;99.90;;;;;;5066315;28;20081;-78
2022/05/17 06:33:20;;;;;;;16.98;13.30;;;17.40;99.90;;;;;;5073805;28;20064;-78
2022/05/17 06:35:48;;;;;;;18.20;12.68;;;17.40;99.90;;;;;;5068776;28;20112;-78
2022/05/17 06:38:15;;;;;;;19.13;13.35;;;17.30;99.90;;;;;;5071821;28;20060;-78
2022/05/17 06:40:40;;;;;;;21.02;12.93;;;17.30;99.90;;;;;;5071426;28;20028;-81
2022/05/17 06:43:06;;;;;;;19.83;13.95;;;17.40;99.90;;;;;;5070726;28;20032;-78
2022/05/17 06:45:33;;;;;;;16.30;12.27;;;17.40;99.90;;;;;;5070085;28;20075;-79
2022/05/17 06:48:00;;;;;;;18.52;12.85;;;17.40;99.90;;;;;;5069719;28;20178;-86
2022/05/17 06:50:26;;;;;;;17.25;13.15;;;17.50;99.90;;;;;;5057023;28;20032;-82
2022/05/17 06:52:52;;;;;;;18.27;12.57;;;17.50;99.90;;;;;;5048734;28;20033;-79
2022/05/17 06:55:17;;;;;;;16.05;12.07;;;17.50;99.90;;;;;;5067703;28;20505;-80
2022/05/17 06:57:43;;;;;;;16.75;12.05;;;17.50;99.90;;;;;;5069687;28;20063;-82
2022/05/17 07:00:12;;;;;;;15.23;11.20;;;17.50;99.90;;;;;;5058928;28;20021;-79
2022/05/17 07:02:39;;;;;;;16.02;12.23;;;17.60;99.90;;;;;;5071095;28;20514;-80
2022/05/17 07:05:05;;;;;;;19.92;11.90;;;17.60;99.90;;;;;;5068807;28;20024;-78
2022/05/17 07:07:32;;;;;;;19.70;12.85;;;17.60;99.90;;;;;;5070963;28;20044;-79
2022/05/17 07:15:25;;;;;;;20.08;13.23;;;17.60;99.90;;;;;;5071416;28;20106;-79
2022/05/17 07:17:51;;;;;;;17.92;14.60;;;17.60;99.90;;;;;;5076792;28;20091;-79
2022/05/17 07:20:17;;;;;;;21.02;15.05;;;17.60;99.90;;;;;;5072318;28;20063;-79
2022/05/17 07:22:43;;;;;;;20.20;14.10;;;17.60;99.90;;;;;;5072544;28;20111;-79
2022/05/17 07:25:10;;;;;;;19.30;13.93;;;17.70;99.90;;;;;;5069333;28;20096;-81
2022/05/17 07:27:35;;;;;;;21.60;14.02;;;17.60;99.90;;;;;;5066690;28;20039;-80
2022/05/17 07:30:02;;;;;;;24.27;14.98;;;17.60;99.90;;;;;;5066927;28;20036;-77
2022/05/17 07:32:27;;;;;;;20.20;14.73;;;17.60;99.90;;;;;;5068208;28;20398;-80
2022/05/17 07:34:53;;;;;;;20.88;13.90;;;17.60;99.90;;;;;;5067719;28;20040;-79
2022/05/17 07:37:18;;;;;;;23.45;14.75;;;17.70;99.90;;;;;;5068088;28;20047;-83
2022/05/17 07:39:44;;;;;;;27.92;16.63;;;17.70;99.90;;;;;;5067754;28;20043;-79
2022/05/17 07:42:10;;;;;;;23.27;16.00;;;17.70;99.90;;;;;;5068132;28;20028;-81
2022/05/17 07:44:36;;;;;;;26.15;16.50;;;17.80;99.90;;;;;;5068304;28;20028;-79
2022/05/17 07:47:02;;;;;;;25.27;15.43;;;17.90;99.90;;;;;;5067629;28;20100;-82
2022/05/17 07:49:27;;;;;;;21.17;15.70;;;18.00;99.90;;;;;;5066611;28;20077;-79
2022/05/17 07:51:54;;;;;;;24.98;17.02;;;18.00;99.90;;;;;;5067640;28;20032;-82
2022/05/17 07:54:19;;;;;;;26.65;18.55;;;18.10;99.90;;;;;;5067706;28;20067;-84
2022/05/17 07:56:45;;;;;;;22.30;16.98;;;18.10;99.90;;;;;;5067527;28;20052;-80
2022/05/17 07:59:10;;;;;;;24.13;16.98;;;18.20;99.90;;;;;;5068404;28;20402;-80
2022/05/17 08:01:36;;;;;;;23.25;17.23;;;18.30;99.90;;;;;;5066588;28;20097;-83
2022/05/17 08:04:02;;;;;;;22.45;16.98;;;18.30;99.90;;;;;;5068885;28;20035;-78
2022/05/17 08:06:28;;;;;;;23.92;17.67;;;18.40;99.90;;;;;;5062627;28;20031;-79
2022/05/17 08:08:53;;;;;;;26.45;17.88;;;18.40;99.90;;;;;;5066519;28;20071;-79
2022/05/17 08:11:19;;;;;;;23.40;15.93;;;18.50;99.90;;;;;;5057923;28;20116;-78
2022/05/17 08:13:45;;;;;;;25.25;17.50;;;18.50;99.90;;;;;;5060275;28;20025;-79
2022/05/17 08:16:10;;;;;;;23.90;17.75;;;18.70;99.90;;;;;;5067593;28;20039;-79
2022/05/17 08:18:36;;;;;;;21.52;16.48;;;18.70;99.90;;;;;;5067318;28;20024;-86
2022/05/17 08:21:01;;;;;;;24.77;17.40;;;18.90;99.90;;;;;;5067776;28;20032;-79
2022/05/17 08:23:27;;;;;;;22.48;17.38;;;19.00;99.90;;;;;;5066805;28;20177;-80
2022/05/17 08:28:36;;;;;;;24.25;17.02;;;19.10;99.90;;;;;;5067142;28;20107;-82
2022/05/17 08:31:02;;;;;;;25.02;17.40;;;19.30;99.90;;;;;;5066698;28;20051;-78
2022/05/17 08:33:30;;;;;;;22.73;16.05;;;19.40;99.90;;;;;;5068527;28;20041;-78
2022/05/17 08:35:57;;;;;;;20.40;14.48;;;19.60;99.90;;;;;;5065846;28;20073;-78
2022/05/17 08:38:32;;;;;;;20.65;15.25;;;19.80;99.90;;;;;;5067471;28;20063;-82
2022/05/17 08:41:05;;;;;;;22.60;15.45;;;20.00;99.90;;;;;;5068277;28;20048;-78
2022/05/17 08:43:49;;;;;;;19.63;14.00;;;20.30;99.90;;;;;;5067660;28;20036;-81
2022/05/17 08:46:26;;;;;;;19.35;13.88;;;20.80;99.40;;;;;;5083179;28;20151;-79
2022/05/17 08:49:01;;;;;;;17.40;13.80;;;21.00;99.10;;;;;;5066607;28;20072;-79
2022/05/17 08:51:53;;;;;;;18.05;13.48;;;21.10;98.80;;;;;;5069617;28;20119;-79
2022/05/17 08:54:24;;;;;;;20.23;13.80;;;21.00;98.90;;;;;;5053707;28;20033;-80
2022/05/17 08:57:13;;;;;;;17.52;12.85;;;21.00;98.80;;;;;;5063567;28;20045;-83
2022/05/17 08:59:38;;;;;;;16.20;12.98;;;21.00;98.70;;;;;;5077964;28;20406;-79
2022/05/17 09:02:32;;;;;;;15.30;11.80;;;21.10;98.20;;;;;;5065327;28;20025;-79
2022/05/17 09:05:19;;;;;;;18.38;12.95;;;21.10;97.70;;;;;;5071700;28;20020;-79
2022/05/17 09:08:09;;;;;;;15.30;11.40;;;21.10;97.90;;;;;;5069245;28;20032;-78
2022/05/17 09:10:38;;;;;;;16.90;11.45;;;21.20;98.20;;;;;;5070672;28;20040;-82
2022/05/17 09:13:10;;;;;;;14.40;12.30;;;21.30;98.10;;;;;;5069752;28;20024;-86
2022/05/17 09:15:36;;;;;;;13.40;10.20;;;21.30;97.00;;;;;;5070131;28;20190;-81
2022/05/17 09:18:09;;;;;;;12.60;10.00;;;21.10;97.10;;;;;;5070868;28;20509;-78
2022/05/17 09:20:37;;;;;;;14.68;10.52;;;21.00;97.50;;;;;;5069222;28;20033;-79
2022/05/17 09:23:03;;;;;;;12.23;10.45;;;21.00;97.40;;;;;;5070760;28;20032;-78
2022/05/17 09:25:56;;;;;;;14.40;9.48;;;20.90;97.40;;;;;;5069652;28;20025;-78
2022/05/17 09:28:28;;;;;;;10.93;9.25;;;20.90;96.80;;;;;;5072536;28;20495;-78
2022/05/17 09:31:22;;;;;;;11.63;8.93;;;21.00;97.70;;;;;;5070004;28;20064;-84
2022/05/17 09:33:49;;;;;;;12.27;8.60;;;21.10;97.40;;;;;;5070458;28;20397;-85
2022/05/17 09:36:23;;;;;;;10.18;8.27;;;21.30;97.30;;;;;;5070977;28;20037;-77
2022/05/17 09:38:51;;;;;;;9.60;7.15;;;21.40;96.50;;;;;;5070750;28;20024;-79
2022/05/17 09:41:24;;;;;;;10.68;6.90;;;21.50;95.70;;;;;;5069584;28;20060;-79
2022/05/17 09:43:54;;;;;;;10.73;7.38;;;21.50;95.40;;;;;;5069773;28;20044;-84
2022/05/17 09:46:45;;;;;;;12.25;9.15;;;21.50;95.60;;;;;;5071673;28;20058;-79
2022/05/17 09:52:32;;;;;;;14.35;9.65;;;21.60;96.30;;;;;;5071665;28;20074;-81
2022/05/17 09:55:06;;;;;;;10.85;8.07;;;21.70;97.30;;;;;;5071242;28;20052;-81
2022/05/17 09:57:31;;;;;;;11.30;7.93;;;21.90;95.20;;;;;;5054429;28;20510;-82
2022/05/17 10:00:08;;;;;;;9.50;5.60;;;22.10;95.70;;;;;;5050227;28;20058;-81
2022/05/17 10:02:40;;;;;;;7.07;5.80;;;22.40;94.40;;;;;;5067145;28;20115;-79
2022/05/17 10:05:17;;;;;;;11.00;6.47;;;22.60;93.40;;;;;;5070851;28;20032;-80
2022/05/17 10:07:52;;;;;;;8.15;6.75;;;22.80;92.50;;;;;;5073757;28;20072;-81
2022/05/17 10:10:35;;;;;;;9.55;6.53;;;22.90;93.10;;;;;;5069555;28;20398;-79
2022/05/17 10:13:17;;;;;;;7.65;5.50;;;22.90;92.30;;;;;;5069479;28;20474;-82
2022/05/17 10:15:48;;;;;;;8.40;5.97;;;22.80;93.30;;;;;;5069205;28;20035;-79
2022/05/17 10:18:37;;;;;;;9.25;6.05;;;22.90;93.10;;;;;;5069902;28;20115;-82
2022/05/17 10:21:30;;;;;;;9.77;5.45;;;22.90;92.70;;;;;;5067731;28;20079;-82
2022/05/17 10:24:25;;;;;;;6.30;5.57;;;22.50;93.00;;;;;;5069500;28;20551;-80
2022/05/17 10:27:16;;;;;;;10.10;5.65;;;22.50;93.70;;;;;;5066427;28;20111;-80
2022/05/17 10:29:49;;;;;;;7.22;4.97;;;22.50;93.50;;;;;;5067323;28;20041;-82
2022/05/17 10:32:35;;;;;;;5.75;4.95;;;22.60;93.50;;;;;;5067995;28;20036;-80
2022/05/17 10:35:42;;;;;;;8.77;5.28;;;22.60;92.80;;;;;;5069592;28;20141;-81
2022/05/17 10:38:17;;;;;;;4.53;3.90;;;22.60;92.80;;;;;;5066076;28;20040;-85
2022/05/17 10:40:49;;;;;;;6.53;4.75;;;22.60;93.00;;;;;;5068951;28;20032;-80
2022/05/17 10:43:26;;;;;;;7.53;3.65;;;22.70;92.80;;;;;;5070008;28;20029;-83
2022/05/17 10:46:06;;;;;;;7.50;4.05;;;22.70;92.40;;;;;;5067504;28;20470;-80
2022/05/17 10:48:49;;;;;;;5.95;3.50;;;22.80;93.20;;;;;;5069355;28;20036;-80
2022/05/17 10:51:43;;;;;;;3.88;3.35;;;22.80;92.40;;;;;;5068789;28;20029;-81
2022/05/17 10:54:44;;;;;;;8.75;4.38;;;22.60;92.70;;;;;;5069191;28;20111;-82
2022/05/17 10:57:33;;;;;;;5.63;4.05;;;22.40;92.70;;;;;;5057084;28;20032;-81
2022/05/17 11:00:18;;;;;;;6.72;4.70;;;22.40;93.60;;;;;;5067357;28;20060;-81
2022/05/17 11:03:10;;;;;;;9.10;7.35;;;22.40;93.10;;;;;;5068286;28;20372;-82
2022/05/17 11:05:47;;;;;;;8.45;4.95;;;22.20;93.00;;;;;;5068532;28;20107;-80
2022/05/17 11:08:36;;;;;;;7.47;4.30;;;22.20;93.10;;;;;;5068275;28;20108;-80
2022/05/17 11:11:21;;;;;;;6.43;4.20;;;22.10;93.50;;;;;;5067460;28;20033;-81
2022/05/17 11:13:56;;;;;;;6.45;4.18;;;22.20;93.90;;;;;;5068530;28;20037;-83
2022/05/17 11:16:33;;;;;;;5.20;3.70;;;22.50;93.40;;;;;;5067023;28;20028;-82
2022/05/17 11:19:09;;;;;;;7.03;4.38;;;22.70;92.70;;;;;;5067317;28;20039;-81
2022/05/17 11:22:03;;;;;;;4.85;3.15;;;23.20;93.60;;;;;;5067149;28;20502;-81
2022/05/17 11:25:06;;;;;;;3.60;3.10;;;23.60;91.90;;;;;;5068978;28;20044;-82
2022/05/17 11:28:09;;;;;;;6.07;3.33;;;23.70;90.90;;;;;;5062731;28;20107;-81
2022/05/17 11:30:46;;;;;;;3.42;2.83;;;24.00;90.30;;;;;;5052769;28;20041;-82
2022/05/17 11:33:24;;;;;;;4.47;3.30;;;24.10;90.20;;;;;;5050952;28;20107;-80
2022/05/17 11:35:58;;;;;;;2.95;2.42;;;24.40;91.00;;;;;;5047882;28;20043;-79
2022/05/17 11:38:32;;;;;;;4.10;3.08;;;24.80;90.00;;;;;;5048845;28;20033;-79
2022/05/17 11:41:00;;;;;;;4.05;3.13;;;25.00;88.80;;;;;;5048561;28;20033;-79
2022/05/17 11:43:48;;;;;;;4.90;2.70;;;25.00;86.30;;;;;;5048446;28;20051;-79
2022/05/17 11:46:28;;;;;;;6.35;2.53;;;25.10;87.60;;;;;;5048293;28;20720;-81
2022/05/17 11:49:12;;;;;;;6.32;2.80;;;24.90;84.90;;;;;;5058604;28;20127;-81
2022/05/17 11:52:00;;;;;;;6.53;3.10;;;24.90;85.20;;;;;;5067739;28;20112;-81
2022/05/17 11:54:42;;;;;;;2.63;2.28;;;24.90;85.40;;;;;;5068638;28;20027;-79
2022/05/17 11:57:09;;;;;;;3.35;2.30;;;24.90;82.80;;;;;;5068475;28;20059;-80
2022/05/17 11:59:35;;;;;;;2.92;2.35;;;24.80;83.80;;;;;;5068968;28;20036;-85
2022/05/17 12:02:08;;;;;;;4.25;2.30;;;24.50;83.50;;;;;;5068755;28;20051;-79
2022/05/17 12:04:37;;;;;;;5.82;2.90;;;24.30;84.60;;;;;;5057647;28;20050;-81
2022/05/17 12:07:27;;;;;;;3.72;2.78;;;24.20;83.80;;;;;;5068467;28;20383;-81
2022/05/17 12:09:56;;;;;;;5.47;3.17;;;24.00;85.50;;;;;;5088558;28;20056;-79
2022/05/17 12:12:34;;;;;;;4.50;3.00;;;23.90;86.50;;;;;;5080476;28;20704;-79
2022/05/17 12:15:17;;;;;;;5.47;3.33;;;23.70;87.90;;;;;;5072293;28;20021;-83
2022/05/17 12:17:46;;;;;;;4.55;3.47;;;23.70;88.30;;;;;;5068474;28;20108;-81
2022/05/17 12:20:26;;;;;;;5.85;3.40;;;23.80;88.90;;;;;;5069106;28;20039;-81
2022/05/17 12:23:05;;;;;;;3.00;2.67;;;23.90;88.50;;;;;;5063314;28;20071;-86
2022/05/17 12:25:59;;;;;;;3.95;3.20;;;23.80;90.20;;;;;;5060585;28;20573;-79
2022/05/17 12:28:31;;;;;;;6.22;3.30;;;23.70;89.80;;;;;;5071379;28;20098;-81
2022/05/17 12:31:00;;;;;;;4.35;3.33;;;23.70;90.10;;;;;;5072348;28;20047;-80
2022/05/17 12:33:44;;;;;;;4.22;2.95;;;23.50;90.20;;;;;;5072641;28;20078;-81
2022/05/17 12:36:21;;;;;;;3.00;2.30;;;23.50;90.50;;;;;;5072532;28;20032;-81
2022/05/17 12:44:49;;;;;;;4.68;2.80;;;23.10;91.00;;;;;;5059869;28;20079;-81
2022/05/17 12:47:39;;;;;;;3.25;2.47;;;23.10;91.30;;;;;;5073671;28;20430;-78
2022/05/17 12:50:06;;;;;;;4.65;2.55;;;23.00;92.00;;;;;;5062231;28;20563;-78
2022/05/17 12:52:33;;;;;;;6.00;2.40;;;23.00;92.10;;;;;;5073428;28;20024;-78
2022/05/17 12:55:17;;;;;;;5.07;2.38;;;22.80;92.60;;;;;;5075893;28;20032;-78
2022/05/17 12:57:43;;;;;;;4.68;2.00;;;22.90;93.00;;;;;;5073295;28;20032;-78
2022/05/17 13:00:16;;;;;;;4.35;2.53;;;22.80;92.20;;;;;;5074761;28;20035;-79
2022/05/17 13:02:49;;;;;;;2.88;2.10;;;22.80;92.10;;;;;;5071656;28;20036;-82
2022/05/17 13:05:40;;;;;;;4.38;2.08;;;22.80;92.50;;;;;;5076027;28;20039;-78
2022/05/17 13:08:09;;;;;;;2.25;1.90;;;22.80;91.80;;;;;;5061733;28;20059;-78
2022/05/17 13:10:37;;;;;;;4.05;1.95;;;22.80;91.80;;;;;;5072755;28;20060;-85
2022/05/17 13:13:18;;;;;;;3.15;2.03;;;22.70;91.40;;;;;;5071748;28;20029;-81
2022/05/17 13:15:53;;;;;;;4.05;1.88;;;22.60;91.50;;;;;;5073003;28;20024;-79
2022/05/17 13:18:19;;;;;;;2.80;1.75;;;22.60;91.30;;;;;;5072561;28;20032;-78